createdAt,value
2018-08-16T00:00:51.752Z,84.05
2018-08-16T00:01:51.692Z,84.85
2018-08-16T00:02:51.710Z,84.35
2018-08-16T00:03:51.668Z,84.35
2018-08-16T00:04:51.661Z,84.35
2018-08-16T00:05:51.672Z,84.55
2018-08-16T00:06:51.681Z,84.39
2018-08-16T00:07:51.634Z,84.19
2018-08-16T00:08:51.629Z,83.98
2018-08-16T00:09:51.607Z,84.69
2018-08-16T00:10:51.693Z,84.89
2018-08-16T00:11:51.581Z,84.69
2018-08-16T00:12:51.573Z,84.99
2018-08-16T00:13:51.623Z,85.19
2018-08-16T00:14:51.579Z,85.10
2018-08-16T00:15:51.534Z,84.49
2018-08-16T00:16:51.528Z,84.89
2018-08-16T00:17:51.512Z,84.59
2018-08-16T00:18:51.535Z,84.73
2018-08-16T00:19:51.539Z,84.89
2018-08-16T00:20:51.506Z,85.14
2018-08-16T00:21:51.466Z,84.43
2018-08-16T00:22:51.460Z,84.93
2018-08-16T00:23:51.448Z,84.63
2018-08-16T00:24:51.432Z,84.83
2018-08-16T00:25:51.483Z,85.14
2018-08-16T00:26:51.409Z,84.83
2018-08-16T00:27:51.398Z,84.93
2018-08-16T00:28:51.386Z,84.93
2018-08-16T00:29:51.378Z,84.93
2018-08-16T00:30:51.394Z,85.14
2018-08-16T00:31:51.405Z,85.14
2018-08-16T00:32:51.381Z,84.63
2018-08-16T00:33:51.364Z,84.53
2018-08-16T00:34:51.333Z,85.03
2018-08-16T00:35:51.314Z,85.14
2018-08-16T00:36:51.315Z,84.93
2018-08-16T00:37:51.322Z,85.24
2018-08-16T00:38:51.317Z,85.94
2018-08-16T00:39:51.301Z,85.54
2018-08-16T00:40:51.265Z,85.44
2018-08-16T00:41:51.256Z,85.03
2018-08-16T00:42:51.293Z,85.24
2018-08-16T00:43:51.229Z,85.03
2018-08-16T00:44:51.214Z,84.53
2018-08-16T00:45:51.204Z,84.93
2018-08-16T00:46:51.197Z,85.03
2018-08-16T00:47:51.229Z,85.03
2018-08-16T00:48:51.192Z,85.38
2018-08-16T00:49:51.159Z,85.68
2018-08-16T00:50:51.191Z,85.58
2018-08-16T00:51:51.141Z,85.64
2018-08-16T00:52:51.145Z,85.64
2018-08-16T00:53:51.118Z,85.44
2018-08-16T00:54:51.103Z,85.54
2018-08-16T00:55:51.166Z,85.24
2018-08-16T00:56:51.105Z,84.93
2018-08-16T00:57:51.068Z,85.14
2018-08-16T00:58:51.089Z,85.34
2018-08-16T00:59:51.054Z,84.87
2018-08-16T01:00:51.037Z,84.47
2018-08-16T01:01:51.018Z,84.47
2018-08-16T01:02:51.009Z,84.93
2018-08-16T01:03:51.069Z,84.53
2018-08-16T01:04:50.990Z,84.77
2018-08-16T01:05:50.995Z,84.97
2018-08-16T01:06:50.970Z,84.53
2018-08-16T01:07:50.985Z,84.33
2018-08-16T01:08:50.941Z,84.33
2018-08-16T01:09:50.975Z,84.53
2018-08-16T01:10:50.922Z,84.67
2018-08-16T01:11:50.935Z,84.43
2018-08-16T01:12:50.894Z,84.87
2018-08-16T01:13:50.940Z,84.67
2018-08-16T01:14:50.877Z,84.27
2018-08-16T01:15:51.064Z,84.77
2018-08-16T01:16:50.853Z,84.67
2018-08-16T01:17:50.862Z,85.17
2018-08-16T01:18:50.871Z,85.08
2018-08-16T01:19:50.818Z,84.77
2018-08-16T01:20:50.857Z,85.02
2018-08-16T01:21:50.802Z,85.78
2018-08-16T01:22:50.819Z,85.38
2018-08-16T01:23:50.803Z,85.42
2018-08-16T01:24:50.796Z,85.38
2018-08-16T01:25:51.109Z,85.17
2018-08-16T01:26:50.748Z,85.68
2018-08-16T01:27:50.732Z,86.29
2018-08-16T01:28:50.734Z,85.68
2018-08-16T01:29:50.734Z,85.72
2018-08-16T01:30:50.696Z,85.62
2018-08-16T01:31:50.706Z,85.93
2018-08-16T01:32:50.673Z,85.93
2018-08-16T01:33:50.693Z,85.82
2018-08-16T01:34:50.651Z,86.02
2018-08-16T01:35:50.639Z,86.33
2018-08-16T01:36:50.652Z,86.63
2018-08-16T01:37:50.647Z,86.53
2018-08-16T01:38:50.635Z,86.33
2018-08-16T01:39:50.626Z,85.82
2018-08-16T01:40:50.617Z,86.73
2018-08-16T01:41:50.575Z,86.73
2018-08-16T01:42:50.582Z,86.33
2018-08-16T01:43:50.559Z,86.83
2018-08-16T01:44:50.577Z,86.43
2018-08-16T01:45:50.526Z,86.63
2018-08-16T01:46:50.524Z,86.63
2018-08-16T01:47:50.506Z,86.53
2018-08-16T01:48:50.503Z,86.53
2018-08-16T01:49:50.514Z,86.53
2018-08-16T01:50:50.474Z,86.53
2018-08-16T01:51:50.462Z,86.53
2018-08-16T01:52:50.481Z,86.53
2018-08-16T01:53:50.438Z,86.73
2018-08-16T01:54:50.471Z,86.63
2018-08-16T01:55:50.525Z,86.83
2018-08-16T01:56:50.408Z,86.57
2018-08-16T01:57:50.531Z,86.63
2018-08-16T01:58:50.392Z,86.73
2018-08-16T01:59:50.377Z,86.63
2018-08-16T02:00:50.381Z,86.22
2018-08-16T02:01:50.378Z,86.63
2018-08-16T02:02:57.480Z,86.73
2018-08-16T02:03:50.328Z,87.04
2018-08-16T02:04:50.319Z,86.83
2018-08-16T02:05:50.358Z,86.63
2018-08-16T02:06:50.311Z,86.43
2018-08-16T02:07:50.324Z,86.43
2018-08-16T02:08:50.300Z,86.43
2018-08-16T02:09:50.260Z,86.53
2018-08-16T02:10:50.280Z,86.53
2018-08-16T02:11:50.244Z,86.33
2018-08-16T02:12:50.227Z,86.63
2018-08-16T02:13:50.220Z,86.43
2018-08-16T02:14:50.217Z,86.22
2018-08-16T02:15:50.221Z,85.93
2018-08-16T02:16:50.246Z,85.62
2018-08-16T02:17:50.176Z,85.62
2018-08-16T02:18:50.167Z,86.07
2018-08-16T02:19:50.154Z,86.16
2018-08-16T02:20:50.171Z,85.93
2018-08-16T02:21:50.127Z,86.27
2018-08-16T02:22:50.125Z,86.37
2018-08-16T02:23:50.144Z,85.76
2018-08-16T02:24:50.099Z,86.57
2018-08-16T02:25:50.087Z,86.07
2018-08-16T02:26:50.074Z,86.67
2018-08-16T02:27:50.098Z,86.77
2018-08-16T02:28:50.087Z,86.37
2018-08-16T02:29:50.041Z,86.16
2018-08-16T02:30:50.032Z,86.57
2018-08-16T02:31:50.020Z,86.87
2018-08-16T02:32:50.110Z,86.37
2018-08-16T02:33:49.996Z,86.77
2018-08-16T02:34:50.015Z,86.67
2018-08-16T02:35:50.003Z,86.67
2018-08-16T02:36:49.964Z,86.77
2018-08-16T02:37:49.953Z,86.47
2018-08-16T02:38:49.972Z,86.77
2018-08-16T02:39:49.939Z,86.77
2018-08-16T02:40:49.972Z,86.91
2018-08-16T02:41:49.911Z,86.27
2018-08-16T02:42:49.931Z,86.87
2018-08-16T02:43:49.889Z,87.08
2018-08-16T02:44:49.877Z,87.28
2018-08-16T02:45:49.881Z,87.12
2018-08-16T02:46:49.850Z,86.87
2018-08-16T02:47:49.861Z,86.67
2018-08-16T02:48:49.869Z,87.62
2018-08-16T02:49:49.816Z,87.38
2018-08-16T02:50:49.829Z,86.61
2018-08-16T02:51:49.832Z,87.42
2018-08-16T02:52:49.826Z,87.32
2018-08-16T02:53:49.774Z,87.42
2018-08-16T02:54:49.764Z,87.42
2018-08-16T02:55:49.770Z,87.52
2018-08-16T02:56:49.753Z,87.73
2018-08-16T02:57:49.768Z,87.52
2018-08-16T02:58:49.751Z,87.52
2018-08-16T02:59:49.707Z,87.42
2018-08-16T03:00:49.754Z,88.02
2018-08-16T03:01:49.723Z,87.32
2018-08-16T03:02:49.671Z,88.02
2018-08-16T03:03:49.661Z,87.66
2018-08-16T03:04:50.457Z,87.62
2018-08-16T03:05:49.636Z,87.62
2018-08-16T03:06:49.669Z,88.02
2018-08-16T03:07:49.619Z,88.07
2018-08-16T03:08:49.608Z,88.57
2018-08-16T03:09:49.621Z,88.07
2018-08-16T03:10:49.627Z,87.97
2018-08-16T03:11:49.597Z,88.07
2018-08-16T03:12:49.567Z,87.77
2018-08-16T03:13:49.562Z,87.82
2018-08-16T03:14:49.541Z,87.87
2018-08-16T03:15:49.575Z,87.97
2018-08-16T03:16:49.515Z,87.87
2018-08-16T03:17:49.547Z,88.13
2018-08-16T03:18:49.563Z,87.62
2018-08-16T03:19:49.484Z,87.93
2018-08-16T03:20:49.470Z,87.82
2018-08-16T03:21:49.495Z,87.62
2018-08-16T03:22:49.454Z,87.82
2018-08-16T03:23:49.448Z,88.07
2018-08-16T03:24:49.482Z,87.82
2018-08-16T03:25:49.412Z,87.87
2018-08-16T03:26:49.405Z,87.66
2018-08-16T03:27:49.397Z,87.93
2018-08-16T03:28:49.380Z,88.07
2018-08-16T03:29:49.400Z,88.07
2018-08-16T03:30:49.359Z,88.07
2018-08-16T03:31:49.357Z,88.07
2018-08-16T03:32:49.336Z,87.62
2018-08-16T03:33:49.359Z,87.87
2018-08-16T03:34:49.311Z,88.07
2018-08-16T03:35:49.309Z,87.97
2018-08-16T03:36:49.402Z,88.02
2018-08-16T03:37:49.283Z,88.17
2018-08-16T03:38:49.267Z,88.17
2018-08-16T03:39:49.261Z,87.82
2018-08-16T03:40:49.261Z,87.87
2018-08-16T03:41:49.261Z,88.68
2018-08-16T03:42:49.222Z,88.02
2018-08-16T03:43:49.216Z,88.23
2018-08-16T03:44:49.199Z,88.37
2018-08-16T03:45:49.224Z,88.57
2018-08-16T03:46:49.215Z,88.17
2018-08-16T03:47:49.175Z,88.27
2018-08-16T03:48:49.157Z,88.27
2018-08-16T03:49:49.145Z,88.48
2018-08-16T03:50:49.135Z,88.37
2018-08-16T03:51:49.163Z,88.27
2018-08-16T03:52:49.928Z,88.27
2018-08-16T03:53:49.131Z,88.57
2018-08-16T03:54:49.108Z,88.27
2018-08-16T03:55:49.100Z,88.27
2018-08-16T03:56:49.123Z,88.17
2018-08-16T03:57:49.064Z,88.17
2018-08-16T03:58:49.050Z,88.17
2018-08-16T03:59:49.032Z,88.27
2018-08-16T04:00:49.028Z,88.07
2018-08-16T04:01:49.066Z,88.57
2018-08-16T04:02:49.005Z,88.57
2018-08-16T04:03:48.992Z,88.48
2018-08-16T04:04:48.976Z,88.78
2018-08-16T04:05:48.963Z,89.28
2018-08-16T04:06:48.992Z,89.18
2018-08-16T04:07:48.976Z,89.39
2018-08-16T04:08:48.932Z,89.39
2018-08-16T04:09:48.919Z,88.88
2018-08-16T04:10:48.916Z,89.18
2018-08-16T04:11:48.922Z,89.08
2018-08-16T04:12:48.915Z,89.43
2018-08-16T04:13:48.887Z,89.18
2018-08-16T04:14:48.875Z,89.08
2018-08-16T04:15:48.855Z,89.39
2018-08-16T04:16:48.967Z,88.57
2018-08-16T04:17:48.831Z,88.68
2018-08-16T04:18:48.822Z,88.88
2018-08-16T04:19:48.823Z,89.18
2018-08-16T04:20:48.803Z,89.48
2018-08-16T04:21:48.818Z,88.98
2018-08-16T04:22:48.780Z,88.88
2018-08-16T04:23:48.769Z,89.08
2018-08-16T04:24:48.755Z,89.08
2018-08-16T04:25:48.781Z,89.08
2018-08-16T04:26:48.729Z,88.88
2018-08-16T04:27:48.718Z,88.78
2018-08-16T04:28:48.736Z,88.78
2018-08-16T04:29:48.737Z,88.68
2018-08-16T04:30:48.687Z,88.68
2018-08-16T04:31:48.679Z,88.68
2018-08-16T04:32:48.782Z,89.39
2018-08-16T04:33:48.660Z,89.28
2018-08-16T04:34:48.644Z,88.98
2018-08-16T04:35:48.675Z,89.28
2018-08-16T04:36:48.628Z,88.98
2018-08-16T04:37:48.617Z,88.88
2018-08-16T04:38:48.601Z,89.08
2018-08-16T04:39:48.615Z,88.84
2018-08-16T04:40:48.604Z,88.53
2018-08-16T04:41:48.748Z,89.48
2018-08-16T04:42:48.551Z,89.45
2018-08-16T04:43:48.541Z,88.74
2018-08-16T04:44:48.528Z,89.14
2018-08-16T04:45:48.549Z,88.64
2018-08-16T04:46:48.540Z,88.02
2018-08-16T04:47:48.495Z,88.13
2018-08-16T04:48:48.500Z,88.19
2018-08-16T04:49:48.474Z,87.99
2018-08-16T04:50:48.497Z,88.29
2018-08-16T04:51:48.513Z,88.19
2018-08-16T04:52:48.442Z,88.19
2018-08-16T04:53:48.430Z,88.39
2018-08-16T04:54:48.425Z,88.19
2018-08-16T04:55:48.409Z,87.79
2018-08-16T04:56:48.457Z,87.99
2018-08-16T04:57:48.384Z,87.99
2018-08-16T04:58:48.378Z,87.95
2018-08-16T04:59:48.366Z,87.95
2018-08-16T05:00:48.361Z,88.04
2018-08-16T05:01:48.378Z,88.09
2018-08-16T05:02:48.347Z,88.04
2018-08-16T05:03:48.322Z,87.64
2018-08-16T05:04:48.354Z,87.64
2018-08-16T05:05:48.295Z,87.44
2018-08-16T05:06:48.292Z,87.34
2018-08-16T05:07:48.275Z,87.34
2018-08-16T05:08:48.266Z,87.64
2018-08-16T05:09:48.285Z,87.24
2018-08-16T05:10:48.250Z,87.64
2018-08-16T05:11:48.275Z,87.74
2018-08-16T05:12:48.299Z,87.34
2018-08-16T05:13:48.210Z,87.54
2018-08-16T05:14:48.201Z,87.64
2018-08-16T05:15:48.220Z,87.50
2018-08-16T05:16:48.175Z,87.50
2018-08-16T05:17:48.205Z,87.30
2018-08-16T05:18:48.150Z,88.15
2018-08-16T05:19:48.152Z,87.90
2018-08-16T05:20:48.128Z,87.40
2018-08-16T05:21:48.154Z,87.19
2018-08-16T05:22:48.109Z,87.50
2018-08-16T05:23:49.037Z,87.50
2018-08-16T05:24:48.087Z,87.50
2018-08-16T05:25:48.083Z,87.50
2018-08-16T05:26:48.095Z,87.19
2018-08-16T05:27:48.085Z,87.30
2018-08-16T05:28:48.039Z,87.26
2018-08-16T05:29:48.036Z,87.46
2018-08-16T05:30:48.145Z,87.26
2018-08-16T05:31:48.105Z,86.55
2018-08-16T05:32:47.998Z,86.55
2018-08-16T05:33:47.986Z,86.71
2018-08-16T05:34:47.975Z,86.45
2018-08-16T05:35:48.000Z,86.75
2018-08-16T05:36:47.956Z,86.10
2018-08-16T05:37:47.942Z,86.61
2018-08-16T05:38:47.936Z,86.71
2018-08-16T05:39:47.921Z,86.41
2018-08-16T05:40:47.934Z,86.57
2018-08-16T05:41:47.891Z,85.86
2018-08-16T05:42:47.923Z,85.86
2018-08-16T05:43:47.872Z,85.76
2018-08-16T05:44:47.859Z,85.36
2018-08-16T05:45:47.846Z,85.11
2018-08-16T05:46:47.838Z,84.65
2018-08-16T05:47:47.908Z,84.85
2018-08-16T05:48:47.813Z,84.81
2018-08-16T05:49:47.800Z,84.51
2018-08-16T05:50:47.840Z,84.71
2018-08-16T05:51:47.779Z,84.61
2018-08-16T05:52:47.795Z,84.61
2018-08-16T05:53:47.764Z,84.21
2018-08-16T05:54:47.750Z,83.80
2018-08-16T05:55:47.759Z,84.21
2018-08-16T05:56:47.725Z,84.21
2018-08-16T05:57:47.754Z,84.31
2018-08-16T05:58:47.733Z,83.87
2018-08-16T05:59:47.696Z,84.17
2018-08-16T06:00:47.722Z,83.87
2018-08-16T06:01:47.667Z,83.66
2018-08-16T06:02:47.667Z,83.97
2018-08-16T06:03:47.653Z,83.76
2018-08-16T06:04:47.669Z,83.66
2018-08-16T06:05:47.630Z,83.46
2018-08-16T06:06:47.612Z,83.16
2018-08-16T06:07:47.612Z,83.16
2018-08-16T06:08:47.590Z,83.02
2018-08-16T06:09:47.607Z,83.12
2018-08-16T06:10:47.579Z,82.62
2018-08-16T06:11:47.558Z,82.86
2018-08-16T06:12:47.557Z,82.71
2018-08-16T06:13:47.548Z,82.92
2018-08-16T06:14:47.549Z,82.92
2018-08-16T06:15:47.522Z,83.12
2018-08-16T06:16:47.529Z,83.02
2018-08-16T06:17:47.494Z,82.11
2018-08-16T06:18:47.481Z,81.81
2018-08-16T06:19:47.469Z,82.42
2018-08-16T06:20:47.489Z,82.21
2018-08-16T06:21:47.449Z,81.81
2018-08-16T06:22:47.438Z,81.87
2018-08-16T06:23:47.456Z,82.01
2018-08-16T06:24:47.412Z,81.77
2018-08-16T06:25:47.431Z,82.07
2018-08-16T06:26:47.388Z,81.57
2018-08-16T06:27:47.463Z,81.87
2018-08-16T06:28:47.369Z,81.77
2018-08-16T06:29:47.389Z,82.38
2018-08-16T06:30:47.379Z,81.67
2018-08-16T06:31:47.358Z,81.63
2018-08-16T06:32:47.318Z,80.93
2018-08-16T06:33:47.313Z,80.93
2018-08-16T06:34:47.301Z,80.93
2018-08-16T06:35:47.330Z,80.93
2018-08-16T06:36:47.280Z,81.03
2018-08-16T06:37:47.266Z,80.43
2018-08-16T06:38:47.321Z,80.83
2018-08-16T06:39:47.254Z,80.93
2018-08-16T06:40:47.272Z,80.83
2018-08-16T06:41:47.219Z,80.22
2018-08-16T06:42:47.213Z,80.93
2018-08-16T06:43:47.194Z,80.12
2018-08-16T06:44:47.186Z,79.99
2018-08-16T06:45:47.200Z,80.39
2018-08-16T06:46:47.161Z,79.99
2018-08-16T06:47:47.153Z,79.18
2018-08-16T06:48:47.137Z,79.48
2018-08-16T06:49:47.175Z,79.08
2018-08-16T06:50:47.131Z,79.58
2018-08-16T06:51:47.142Z,79.58
2018-08-16T06:52:47.131Z,79.64
2018-08-16T06:53:47.084Z,78.78
2018-08-16T06:54:47.135Z,78.64
2018-08-16T06:55:47.067Z,78.98
2018-08-16T06:56:47.053Z,78.74
2018-08-16T06:57:47.044Z,78.84
2018-08-16T06:58:47.034Z,79.04
2018-08-16T06:59:47.058Z,78.74
2018-08-16T07:00:47.070Z,78.94
2018-08-16T07:01:47.004Z,78.90
2018-08-16T07:02:46.982Z,78.40
2018-08-16T07:03:46.970Z,77.90
2018-08-16T07:04:47.052Z,77.20
2018-08-16T07:05:46.953Z,77.36
2018-08-16T07:06:46.961Z,76.25
2018-08-16T07:07:46.927Z,76.39
2018-08-16T07:08:46.956Z,76.49
2018-08-16T07:09:46.907Z,76.45
2018-08-16T07:10:46.919Z,75.85
2018-08-16T07:11:46.890Z,74.74
2018-08-16T07:12:46.904Z,75.25
2018-08-16T07:13:46.864Z,75.65
2018-08-16T07:14:46.847Z,74.55
2018-08-16T07:15:46.866Z,75.15
2018-08-16T07:16:46.821Z,74.74
2018-08-16T07:17:46.866Z,74.95
2018-08-16T07:18:46.855Z,74.65
2018-08-16T07:19:46.789Z,74.65
2018-08-16T07:20:46.780Z,74.71
2018-08-16T07:21:46.766Z,74.61
2018-08-16T07:22:46.797Z,74.21
2018-08-16T07:23:46.742Z,74.21
2018-08-16T07:24:46.801Z,73.71
2018-08-16T07:25:46.748Z,73.87
2018-08-16T07:26:46.714Z,73.50
2018-08-16T07:27:46.704Z,73.37
2018-08-16T07:28:46.693Z,72.37
2018-08-16T07:29:46.707Z,72.27
2018-08-16T07:30:46.702Z,72.17
2018-08-16T07:31:46.667Z,73.21
2018-08-16T07:32:46.672Z,73.07
2018-08-16T07:33:46.630Z,72.17
2018-08-16T07:34:46.620Z,71.83
2018-08-16T07:35:46.652Z,71.53
2018-08-16T07:36:46.616Z,71.33
2018-08-16T07:37:46.600Z,70.73
2018-08-16T07:38:46.581Z,70.79
2018-08-16T07:39:46.566Z,70.53
2018-08-16T07:40:46.613Z,69.62
2018-08-16T07:41:46.545Z,70.43
2018-08-16T07:42:46.541Z,69.32
2018-08-16T07:43:46.526Z,69.42
2018-08-16T07:44:46.524Z,69.32
2018-08-16T07:45:46.661Z,68.62
2018-08-16T07:46:46.497Z,69.22
2018-08-16T07:47:46.985Z,69.12
2018-08-16T07:48:46.472Z,68.82
2018-08-16T07:49:46.460Z,69.32
2018-08-16T07:50:46.501Z,68.62
2018-08-16T07:51:46.594Z,68.52
2018-08-16T07:52:46.425Z,68.52
2018-08-16T07:53:46.415Z,69.59
2018-08-16T07:54:46.432Z,69.32
2018-08-16T07:55:47.025Z,69.49
2018-08-16T07:56:46.374Z,69.59
2018-08-16T07:57:46.368Z,68.79
2018-08-16T07:58:46.357Z,68.89
2018-08-16T07:59:46.388Z,68.99
2018-08-16T08:00:46.341Z,69.19
2018-08-16T08:01:46.352Z,68.49
2018-08-16T08:02:46.335Z,68.89
2018-08-16T08:03:46.415Z,69.29
2018-08-16T08:04:46.295Z,69.09
2018-08-16T08:05:46.277Z,69.09
2018-08-16T08:06:46.291Z,67.99
2018-08-16T08:07:46.256Z,67.58
2018-08-16T08:08:46.326Z,67.65
2018-08-16T08:09:46.282Z,67.55
2018-08-16T08:10:46.228Z,67.45
2018-08-16T08:11:46.212Z,67.35
2018-08-16T08:12:46.203Z,67.29
2018-08-16T08:13:46.240Z,67.65
2018-08-16T08:14:46.188Z,67.76
2018-08-16T08:15:46.168Z,67.45
2018-08-16T08:16:46.155Z,67.76
2018-08-16T08:17:46.143Z,67.62
2018-08-16T08:18:46.168Z,67.82
2018-08-16T08:19:46.117Z,67.32
2018-08-16T08:20:46.136Z,67.52
2018-08-16T08:21:46.101Z,67.72
2018-08-16T08:22:46.086Z,65.82
2018-08-16T08:23:46.112Z,65.82
2018-08-16T08:24:46.070Z,65.72
2018-08-16T08:25:46.119Z,65.92
2018-08-16T08:26:46.072Z,66.02
2018-08-16T08:27:46.135Z,65.12
2018-08-16T08:28:46.020Z,65.31
2018-08-16T08:29:46.019Z,65.52
2018-08-16T08:30:46.030Z,66.22
2018-08-16T08:31:46.135Z,65.72
2018-08-16T08:32:45.978Z,66.55
2018-08-16T08:33:45.966Z,66.32
2018-08-16T08:34:45.970Z,66.22
2018-08-16T08:35:45.983Z,66.02
2018-08-16T08:36:45.932Z,65.01
2018-08-16T08:37:45.937Z,66.02
2018-08-16T08:38:46.001Z,66.28
2018-08-16T08:39:45.902Z,65.09
2018-08-16T08:40:45.880Z,65.09
2018-08-16T08:41:45.877Z,65.09
2018-08-16T08:42:45.860Z,65.48
2018-08-16T08:43:45.971Z,65.48
2018-08-16T08:44:45.843Z,65.78
2018-08-16T08:45:45.866Z,65.45
2018-08-16T08:46:45.825Z,65.05
2018-08-16T08:47:45.851Z,64.15
2018-08-16T08:48:45.799Z,63.56
2018-08-16T08:49:45.784Z,63.45
2018-08-16T08:50:45.773Z,64.06
2018-08-16T08:51:45.762Z,62.85
2018-08-16T08:52:45.795Z,63.02
2018-08-16T08:53:45.746Z,63.06
2018-08-16T08:54:45.730Z,62.85
2018-08-16T08:55:45.715Z,63.25
2018-08-16T08:56:45.733Z,63.65
2018-08-16T08:57:45.694Z,63.95
2018-08-16T08:58:45.687Z,64.25
2018-08-16T08:59:45.673Z,63.95
2018-08-16T09:00:45.694Z,63.92
2018-08-16T09:01:45.648Z,63.92
2018-08-16T09:02:45.648Z,63.32
2018-08-16T09:03:45.629Z,63.39
2018-08-16T09:04:45.624Z,62.22
2018-08-16T09:05:45.649Z,61.89
2018-08-16T09:06:45.598Z,61.69
2018-08-16T09:07:45.603Z,62.09
2018-08-16T09:08:45.574Z,61.89
2018-08-16T09:09:45.565Z,61.89
2018-08-16T09:10:45.611Z,61.79
2018-08-16T09:11:45.541Z,61.69
2018-08-16T09:12:45.532Z,61.69
2018-08-16T09:13:45.572Z,61.87
2018-08-16T09:14:45.532Z,61.87
2018-08-16T09:15:45.529Z,61.76
2018-08-16T09:16:45.489Z,61.76
2018-08-16T09:17:45.474Z,61.76
2018-08-16T09:18:45.462Z,61.76
2018-08-16T09:19:45.479Z,60.93
2018-08-16T09:20:45.438Z,60.74
2018-08-16T09:21:45.483Z,60.63
2018-08-16T09:22:45.431Z,60.53
2018-08-16T09:23:45.406Z,60.74
2018-08-16T09:24:45.401Z,60.53
2018-08-16T09:25:45.393Z,60.63
2018-08-16T09:26:45.415Z,60.44
2018-08-16T09:27:45.372Z,60.53
2018-08-16T09:28:45.356Z,60.11
2018-08-16T09:29:45.394Z,60.11
2018-08-16T09:30:45.332Z,60.31
2018-08-16T09:31:45.408Z,60.41
2018-08-16T09:32:45.304Z,60.68
2018-08-16T09:33:45.299Z,59.68
2018-08-16T09:34:45.318Z,59.78
2018-08-16T09:35:45.311Z,60.08
2018-08-16T09:36:45.264Z,59.18
2018-08-16T09:37:45.257Z,59.18
2018-08-16T09:38:45.243Z,59.28
2018-08-16T09:39:45.276Z,58.48
2018-08-16T09:40:45.260Z,58.48
2018-08-16T09:41:45.210Z,59.31
2018-08-16T09:42:45.201Z,60.00
2018-08-16T09:43:45.186Z,59.11
2018-08-16T09:44:45.171Z,59.01
2018-08-16T09:45:45.255Z,59.81
2018-08-16T09:46:45.148Z,59.83
2018-08-16T09:47:45.140Z,59.64
2018-08-16T09:48:45.126Z,59.83
2018-08-16T09:49:45.165Z,59.61
2018-08-16T09:50:45.101Z,59.83
2018-08-16T09:51:45.227Z,59.34
2018-08-16T09:52:45.116Z,59.14
2018-08-16T09:53:45.116Z,59.91
2018-08-16T09:54:45.059Z,59.91
2018-08-16T09:55:45.081Z,59.41
2018-08-16T09:56:45.034Z,58.91
2018-08-16T09:57:45.023Z,58.51
2018-08-16T09:58:45.053Z,59.01
2018-08-16T09:59:45.006Z,59.81
2018-08-16T10:00:45.029Z,58.31
2018-08-16T10:01:44.982Z,58.48
2018-08-16T10:02:45.008Z,58.08
2018-08-16T10:03:45.047Z,57.88
2018-08-16T10:04:44.951Z,57.98
2018-08-16T10:05:44.944Z,58.18
2018-08-16T10:06:44.926Z,58.58
2018-08-16T10:07:44.944Z,57.98
2018-08-16T10:08:44.904Z,58.58
2018-08-16T10:09:44.894Z,58.08
2018-08-16T10:10:44.886Z,58.38
2018-08-16T10:11:44.868Z,57.46
2018-08-16T10:12:44.888Z,57.76
2018-08-16T10:13:44.851Z,58.06
2018-08-16T10:14:44.835Z,58.45
2018-08-16T10:15:44.828Z,56.85
2018-08-16T10:16:44.846Z,56.76
2018-08-16T10:17:44.836Z,56.93
2018-08-16T10:18:44.827Z,56.83
2018-08-16T10:19:44.774Z,57.13
2018-08-16T10:20:44.793Z,56.90
2018-08-16T10:21:44.756Z,55.80
2018-08-16T10:22:44.804Z,56.30
2018-08-16T10:23:44.738Z,55.88
2018-08-16T10:24:44.767Z,55.58
2018-08-16T10:25:44.711Z,56.08
2018-08-16T10:26:44.701Z,55.78
2018-08-16T10:27:44.695Z,55.68
2018-08-16T10:28:44.709Z,55.68
2018-08-16T10:29:44.701Z,55.78
2018-08-16T10:30:44.660Z,55.38
2018-08-16T10:31:44.652Z,55.78
2018-08-16T10:32:44.647Z,55.68
2018-08-16T10:33:44.668Z,55.98
2018-08-16T10:34:44.622Z,55.68
2018-08-16T10:35:44.625Z,56.18
2018-08-16T10:36:44.598Z,55.58
2018-08-16T10:37:44.628Z,55.18
2018-08-16T10:38:44.636Z,54.75
2018-08-16T10:39:44.567Z,54.66
2018-08-16T10:40:44.556Z,54.86
2018-08-16T10:41:44.545Z,54.86
2018-08-16T10:42:44.560Z,55.05
2018-08-16T10:43:44.511Z,55.03
2018-08-16T10:44:44.542Z,55.33
2018-08-16T10:45:44.494Z,54.83
2018-08-16T10:46:44.489Z,54.63
2018-08-16T10:47:44.466Z,54.53
2018-08-16T10:48:44.459Z,54.13
2018-08-16T10:49:44.482Z,54.13
2018-08-16T10:50:44.440Z,53.74
2018-08-16T10:51:44.435Z,53.83
2018-08-16T10:52:44.413Z,53.94
2018-08-16T10:53:44.426Z,53.04
2018-08-16T10:54:44.415Z,53.11
2018-08-16T10:55:44.386Z,53.44
2018-08-16T10:56:44.376Z,53.64
2018-08-16T10:57:44.389Z,53.64
2018-08-16T10:58:44.348Z,54.24
2018-08-16T10:59:44.346Z,54.24
2018-08-16T11:00:44.327Z,54.43
2018-08-16T11:01:44.320Z,53.64
2018-08-16T11:02:44.342Z,53.81
2018-08-16T11:03:44.297Z,53.61
2018-08-16T11:04:44.277Z,53.51
2018-08-16T11:05:44.269Z,53.02
2018-08-16T11:06:44.267Z,53.21
2018-08-16T11:07:44.288Z,53.11
2018-08-16T11:08:44.250Z,53.81
2018-08-16T11:09:44.225Z,53.71
2018-08-16T11:10:44.272Z,53.49
2018-08-16T11:11:44.397Z,52.99
2018-08-16T11:12:44.221Z,52.89
2018-08-16T11:13:44.186Z,53.49
2018-08-16T11:14:44.171Z,52.29
2018-08-16T11:15:44.164Z,52.47
2018-08-16T11:16:44.200Z,52.29
2018-08-16T11:17:44.138Z,52.49
2018-08-16T11:18:44.160Z,52.69
2018-08-16T11:19:44.121Z,52.26
2018-08-16T11:20:44.103Z,52.59
2018-08-16T11:21:44.131Z,52.67
2018-08-16T11:22:44.155Z,52.39
2018-08-16T11:23:44.069Z,52.96
2018-08-16T11:24:44.059Z,52.39
2018-08-16T11:25:44.048Z,52.59
2018-08-16T11:26:44.075Z,52.67
2018-08-16T11:27:44.033Z,52.86
2018-08-16T11:28:44.025Z,53.26
2018-08-16T11:29:44.004Z,53.36
2018-08-16T11:30:44.560Z,53.06
2018-08-16T11:31:44.011Z,52.56
2018-08-16T11:32:43.972Z,53.36
2018-08-16T11:33:44.001Z,52.94
2018-08-16T11:34:43.958Z,52.24
2018-08-16T11:35:43.951Z,52.04
2018-08-16T11:36:43.964Z,51.75
2018-08-16T11:37:43.979Z,52.54
2018-08-16T11:38:43.903Z,51.75
2018-08-16T11:39:43.990Z,51.75
2018-08-16T11:40:43.982Z,52.14
2018-08-16T11:41:43.870Z,51.35
2018-08-16T11:42:43.876Z,51.75
2018-08-16T11:43:43.881Z,50.75
2018-08-16T11:44:43.880Z,50.65
2018-08-16T11:45:43.828Z,50.58
2018-08-16T11:46:43.973Z,50.58
2018-08-16T11:47:43.809Z,50.48
2018-08-16T11:48:43.852Z,51.17
2018-08-16T11:49:43.786Z,50.98
2018-08-16T11:50:43.767Z,51.97
2018-08-16T11:51:43.776Z,50.88
2018-08-16T11:52:43.752Z,51.05
2018-08-16T11:53:43.773Z,50.95
2018-08-16T11:54:43.763Z,51.05
2018-08-16T11:55:43.714Z,50.88
2018-08-16T11:56:43.710Z,51.15
2018-08-16T11:57:43.731Z,50.85
2018-08-16T11:58:43.729Z,51.35
2018-08-16T11:59:43.696Z,50.95
2018-08-16T12:00:43.699Z,50.45
2018-08-16T12:01:43.654Z,51.03
2018-08-16T12:02:43.648Z,50.43
2018-08-16T12:03:43.648Z,51.12
2018-08-16T12:04:43.660Z,51.12
2018-08-16T12:05:43.649Z,51.12
2018-08-16T12:06:43.601Z,51.03
2018-08-16T12:07:43.590Z,50.53
2018-08-16T12:08:43.575Z,51.03
2018-08-16T12:09:43.571Z,50.93
2018-08-16T12:10:43.592Z,50.93
2018-08-16T12:11:43.544Z,50.83
2018-08-16T12:12:43.537Z,50.43
2018-08-16T12:13:43.517Z,50.53
2018-08-16T12:14:43.686Z,51.42
2018-08-16T12:15:43.551Z,51.00
2018-08-16T12:16:43.489Z,50.33
2018-08-16T12:17:43.521Z,50.40
2018-08-16T12:18:43.477Z,50.51
2018-08-16T12:19:43.457Z,50.11
2018-08-16T12:20:43.445Z,51.00
2018-08-16T12:21:43.437Z,50.31
2018-08-16T12:22:43.455Z,49.61
2018-08-16T12:23:43.416Z,49.71
2018-08-16T12:24:43.401Z,49.81
2018-08-16T12:25:43.392Z,49.41
2018-08-16T12:26:43.421Z,49.32
2018-08-16T12:27:43.378Z,49.32
2018-08-16T12:28:43.356Z,49.51
2018-08-16T12:29:43.347Z,49.91
2018-08-16T12:30:43.352Z,49.81
2018-08-16T12:31:43.357Z,49.71
2018-08-16T12:32:43.366Z,49.71
2018-08-16T12:33:43.305Z,49.99
2018-08-16T12:34:43.298Z,50.98
2018-08-16T12:35:43.282Z,49.76
2018-08-16T12:36:43.272Z,48.65
2018-08-16T12:37:43.337Z,48.45
2018-08-16T12:38:43.280Z,47.93
2018-08-16T12:39:43.241Z,47.44
2018-08-16T12:40:43.298Z,47.31
2018-08-16T12:41:43.211Z,46.70
2018-08-16T12:42:43.241Z,46.30
2018-08-16T12:43:43.197Z,46.67
2018-08-16T12:44:43.215Z,46.16
2018-08-16T12:45:44.117Z,45.05
2018-08-16T12:46:43.177Z,44.75
2018-08-16T12:47:43.185Z,44.46
2018-08-16T12:48:43.138Z,44.04
2018-08-16T12:49:43.161Z,43.45
2018-08-16T12:50:43.120Z,43.55
2018-08-16T12:51:43.108Z,43.45
2018-08-16T12:52:43.100Z,43.43